< < Back
Terminal Aerodrome Forecast


Current Version              Previous Versions:   1  2  3  4  5  6  7  8  9  

Terminal Aerodrome Forecast

821
FTUS42 KGSP 201400 AAA
TAFAND
TAF AMD
KAND 201444Z 2015/2112 05015G26KT P6SM SCT090
     FM201800 05015G24KT P6SM FEW080 SCT250
     FM210200 04006KT P6SM FEW250=



Latest METAR

587
SAUS70 KWBC 202100 RRB
MTRAND
METAR KAND 202056Z AUTO 07007G17KT 10SM CLR 22/00 A3017 RMK AO2 SLP210
T02170000 56017


USA.gov is the U.S. government's official web portal to all federal, state and local government web resources and services.